Latest Weather Observations for Mackay Airport

IDQ60801

Issued at 3:05 pm EST Tuesday 21 October 2014 (issued every 30 minutes, with the page automatically refreshed every 10 minutes)

About weather observations | Map of weather stations | Latest weather observations for QLD | Other Formats
Station Details ID: 033045 Name: MACKAY AERO Lat: -21.17 Lon: 149.18 Height: 4.7 m
Data from the previous 72 hours. | See also: Recent months at Mackay Airport
Date/Time
EST
Temp
°C
App
Temp
°C
Dew
Point
Rel
Hum
%
Delta-T
°C
Wind Press
QNH
hPa
Press
MSL
hPa
Rain
since 9 am
mm
Dir
 
Spd
km/h
Gust
km/h
Spd
kts
Gust
kts
21/03:00pm 25.1 20.7 17.6 63 4.7 SE 37 44 20 24 1020.5 1020.5 1.6
21/02:30pm 24.8 22.0 19.0 70 3.7 SE 32 43 17 23 1020.8 1020.8 1.6
21/02:00pm 23.4 20.0 17.6 70 3.6 SE 32 41 17 22 1021.2 1021.2 1.6
21/01:30pm 21.7 21.6 20.0 90 1.1 ENE 20 32 11 17 1021.6 1021.6 1.6
21/01:18pm 21.0 20.1 19.1 89 1.2 E 22 30 12 16 1021.7 1021.7 1.6
21/01:00pm 20.2 17.1 18.3 89 1.2 E 32 46 17 25 1022.1 1022.1 1.4
21/12:43pm 21.8 18.6 18.6 82 2.0 ESE 33 43 18 23 1022.1 1022.1 0.2
21/12:30pm 25.3 22.3 18.7 67 4.2 E 32 39 17 21 1022.1 1022.1 0.0
21/12:00pm 25.7 21.2 16.3 56 5.8 SE 35 44 19 24 1022.3 1022.3 0.0
21/11:30am 26.5 22.0 14.9 49 7.0 SE 32 41 17 22 1022.6 1022.6 0.0
21/11:00am 27.1 22.4 15.8 50 6.9 SE 35 44 19 24 1022.7 1022.7 0.0
21/10:30am 26.7 22.0 14.8 48 7.2 ESE 33 43 18 23 1022.9 1022.9 0.0
21/10:00am 27.2 22.6 15.2 47 7.3 ESE 33 44 18 24 1023.0 1023.0 0.0
21/09:30am 26.0 21.9 16.5 55 5.9 ESE 33 43 18 23 1022.8 1022.8 0.0
21/09:00am 25.3 22.4 18.0 64 4.6 SE 30 37 16 20 1022.7 1022.7 0.8
21/08:30am 23.5 23.0 19.2 77 2.7 SSE 20 28 11 15 1022.6 1022.6 0.8
21/08:00am 21.7 20.9 18.5 82 2.0 S 20 26 11 14 1022.6 1022.6 0.8
21/07:30am 21.8 20.6 17.6 77 2.6 S 20 28 11 15 1022.3 1022.3 0.2
21/07:00am 20.6 19.7 17.8 84 1.7 S 19 24 10 13 1021.9 1021.9 0.2
21/06:30am 20.3 19.2 17.7 85 1.6 S 20 32 11 17 1021.4 1021.4 0.2
21/06:00am 18.9 17.9 16.7 87 1.3 S 17 20 9 11 1021.0 1021.0 0.2
21/05:53am 19.2 17.9 16.8 86 1.4 S 19 26 10 14 1020.9 1020.9 0.2
21/05:39am 18.5 17.2 15.9 85 1.5 S 17 33 9 18 1021.0 1021.0 0.2
21/05:30am 18.6 17.9 15.5 82 1.8 S 13 17 7 9 1020.8 1020.8 0.0
21/05:00am 17.8 17.0 15.1 84 1.6 SSW 13 17 7 9 1020.4 1020.4 0.0
21/04:30am 18.5 18.1 15.2 81 1.9 S 11 13 6 7 1020.3 1020.3 0.0
21/04:00am 18.8 18.2 15.7 82 1.8 S 13 17 7 9 1020.2 1020.2 0.0
21/03:30am 18.2 17.1 15.3 83 1.7 SSW 15 17 8 9 1020.2 1020.2 0.0
21/03:00am 18.6 18.4 15.7 83 1.7 S 11 15 6 8 1020.1 1020.1 0.0
21/02:30am 19.5 19.0 15.0 75 2.6 SSE 11 22 6 12 1020.2 1020.2 0.0
21/02:00am 21.6 19.4 15.9 70 3.4 ESE 22 30 12 16 1020.2 1020.2 0.0
21/01:30am 21.7 19.1 15.8 69 3.5 ESE 24 30 13 16 1020.4 1020.4 0.0
21/01:00am 21.8 19.1 16.5 72 3.2 ESE 26 33 14 18 1020.8 1020.8 0.0
21/12:30am 21.8 19.4 16.5 72 3.2 ESE 24 32 13 17 1021.2 1021.2 0.0
21/12:00am 22.0 18.8 16.3 70 3.4 ESE 28 33 15 18 1021.6 1021.6 0.0
 
Date/Time
EST
Temp
°C
App
Temp
°C
Dew
Point
Rel
Hum
%
Delta-T
°C
Wind Press
QNH
hPa
Press
MSL
hPa
Rain
since 9 am
mm
Dir
 
Spd
km/h
Gust
km/h
Spd
kts
Gust
kts
20/11:30pm 22.0 18.4 16.3 70 3.4 ESE 30 37 16 20 1022.0 1022.0 0.0
20/11:00pm 22.3 19.3 16.8 71 3.3 ESE 28 35 15 19 1022.4 1022.4 0.0
20/10:30pm 22.1 18.7 16.8 72 3.2 ESE 30 37 16 20 1022.4 1022.4 0.0
20/10:00pm 22.3 19.1 17.2 73 3.1 ESE 30 37 16 20 1022.4 1022.4 0.0
20/09:30pm 22.4 18.8 17.1 72 3.3 ESE 32 39 17 21 1022.5 1022.5 0.0
20/09:00pm 22.5 19.4 17.4 73 3.1 ESE 30 37 16 20 1022.3 1022.3 0.0
20/08:30pm 22.4 19.9 17.1 72 3.3 ESE 26 32 14 17 1022.2 1022.2 0.0
20/08:00pm 22.6 20.2 17.3 72 3.3 ESE 26 33 14 18 1021.8 1021.8 0.0
20/07:30pm 22.7 21.0 18.0 75 2.9 ESE 24 32 13 17 1021.4 1021.4 0.0
20/07:00pm 22.8 20.1 17.5 72 3.3 ESE 28 35 15 19 1021.1 1021.1 0.0
20/06:30pm 22.8 20.9 17.7 73 3.2 ESE 24 32 13 17 1020.7 1020.7 0.0
20/06:00pm 23.0 21.2 17.9 73 3.2 ESE 24 32 13 17 1020.3 1020.3 0.0
20/05:30pm 23.6 21.4 17.8 70 3.6 ESE 26 33 14 18 1019.9 1019.9 0.0
20/05:00pm 23.6 21.2 17.3 67 3.9 ESE 26 35 14 19 1019.5 1019.5 0.0
20/04:30pm 24.2 20.9 17.0 64 4.4 ESE 30 37 16 20 1019.2 1019.2 0.0
20/04:00pm 25.5 22.5 17.7 62 4.9 ESE 30 39 16 21 1019.0 1019.0 0.0
20/03:30pm 25.9 22.7 18.1 62 4.9 ESE 32 37 17 20 1019.1 1019.1 0.0
20/03:00pm 25.2 21.6 16.3 57 5.4 ESE 30 37 16 20 1019.1 1019.1 0.0
20/02:30pm 26.5 22.6 16.4 53 6.2 ESE 32 37 17 20 1019.5 1019.5 0.0
20/02:00pm 25.9 21.8 16.5 56 5.8 ESE 33 41 18 22 1019.7 1019.7 0.0
20/01:30pm 25.9 21.5 16.7 57 5.7 SE 35 43 19 23 1020.1 1020.1 0.0
20/01:00pm 26.3 22.3 16.8 56 5.9 SE 33 44 18 24 1020.7 1020.7 0.0
20/12:30pm 26.0 21.8 17.1 58 5.5 SE 35 44 19 24 1021.1 1021.1 0.0
20/12:00pm 27.1 23.9 18.7 60 5.4 SE 33 41 18 22 1021.6 1021.6 0.0
20/11:30am 25.9 22.0 17.0 58 5.5 SE 33 41 18 22 1021.8 1021.8 0.0
20/11:00am 26.2 21.9 17.0 57 5.7 SE 35 43 19 23 1022.2 1022.2 0.0
20/10:30am 25.7 21.4 15.4 53 6.2 SE 32 43 17 23 1022.6 1022.6 0.0
20/10:00am 26.1 21.7 16.6 55 5.8 SE 35 43 19 23 1022.9 1022.9 0.0
20/09:30am 24.8 20.7 16.0 58 5.4 SE 32 39 17 21 1023.2 1023.2 0.0
20/09:00am 24.6 20.7 15.5 57 5.5 SE 30 39 16 21 1023.3 1023.3 0.0
20/08:30am 25.0 22.2 17.2 62 4.8 SSE 28 37 15 20 1023.0 1023.0 0.0
20/08:00am 23.8 21.3 16.1 62 4.7 S 24 35 13 19 1022.9 1022.9 0.0
20/07:30am 23.3 21.8 15.4 61 4.7 S 17 24 9 13 1022.8 1022.8 0.0
20/07:00am 22.0 20.6 14.6 63 4.3 S 15 20 8 11 1022.7 1022.7 0.0
20/06:30am 20.6 19.6 14.5 68 3.6 S 13 20 7 11 1022.4 1022.4 0.0
20/06:00am 18.5 16.7 14.4 77 2.4 SSW 17 19 9 10 1022.1 1022.1 0.0
20/05:30am 18.1 16.7 13.4 74 2.7 S 13 15 7 8 1021.8 1021.8 0.0
20/05:00am 21.1 18.0 13.5 62 4.4 ESE 22 30 12 16 1021.5 1021.5 0.0
20/04:30am 21.3 18.5 14.2 64 4.1 ESE 22 28 12 15 1021.3 1021.3 0.0
20/04:00am 21.4 17.8 14.1 63 4.2 ESE 26 33 14 18 1020.9 1020.9 0.0
20/03:30am 21.4 17.4 14.1 63 4.2 SE 28 33 15 18 1020.7 1020.7 0.0
20/03:00am 21.6 17.1 13.8 61 4.5 ESE 30 35 16 19 1020.5 1020.5 0.0
20/02:30am 21.6 18.3 15.0 66 3.9 ESE 26 32 14 17 1020.5 1020.5 0.0
20/02:00am 21.7 17.7 14.1 62 4.4 ESE 28 33 15 18 1020.7 1020.7 0.0
20/01:30am 22.0 17.8 13.4 58 5.0 ESE 28 35 15 19 1021.2 1021.2 0.0
20/01:00am 22.0 18.4 14.1 61 4.6 ESE 26 33 14 18 1021.5 1021.5 0.0
20/12:30am 22.4 18.3 15.0 63 4.4 E 30 39 16 21 1021.8 1021.8 0.0
20/12:00am 22.4 18.1 14.5 61 4.6 ESE 30 41 16 22 1022.3 1022.3 0.0
 
Date/Time
EST
Temp
°C
App
Temp
°C
Dew
Point
Rel
Hum
%
Delta-T
°C
Wind Press
QNH
hPa
Press
MSL
hPa
Rain
since 9 am
mm
Dir
 
Spd
km/h
Gust
km/h
Spd
kts
Gust
kts
19/11:30pm 22.2 18.2 15.1 64 4.2 ESE 30 37 16 20 1022.7 1022.7 0.0
19/11:00pm 22.4 17.7 14.3 60 4.7 ESE 32 41 17 22 1022.9 1022.9 0.0
19/10:30pm 22.3 18.9 15.9 67 3.9 ESE 28 39 15 21 1023.2 1023.2 0.0
19/10:00pm 22.5 18.2 15.4 64 4.2 ESE 32 43 17 23 1023.2 1023.2 0.0
19/09:30pm 22.7 18.2 15.0 61 4.6 ESE 32 41 17 22 1023.0 1023.0 0.0
19/09:00pm 22.6 18.0 15.2 63 4.4 ESE 33 44 18 24 1022.8 1022.8 0.0
19/08:30pm 22.8 17.8 15.1 62 4.6 ESE 35 44 19 24 1022.6 1022.6 0.0
19/08:00pm 22.7 18.4 16.0 66 4.0 ESE 33 46 18 25 1022.5 1022.5 0.0
19/07:30pm 22.9 18.1 14.5 59 5.0 ESE 33 43 18 23 1022.2 1022.2 0.0
19/07:00pm 22.8 18.3 15.4 63 4.4 ESE 33 43 18 23 1022.0 1022.0 0.0
19/06:30pm 22.9 17.9 15.0 61 4.7 ESE 35 43 19 23 1021.6 1021.6 0.0
19/06:00pm 23.0 18.3 15.8 64 4.3 ESE 35 44 19 24 1021.5 1021.5 0.0
19/05:30pm 23.5 19.0 15.3 60 4.9 ESE 33 41 18 22 1021.4 1021.4 0.0
19/05:00pm 24.4 20.2 16.1 60 5.0 ESE 33 43 18 23 1021.2 1021.2 0.0
19/04:30pm 24.6 20.0 16.1 59 5.2 ESE 35 44 19 24 1021.0 1021.0 0.0
19/04:00pm 26.1 22.3 17.2 58 5.5 ESE 33 44 18 24 1020.8 1020.8 0.0
19/03:30pm 25.7 20.8 16.3 56 5.8 ESE 37 46 20 25 1020.6 1020.6 0.0
19/03:00pm 26.4 22.4 17.5 58 5.6 ESE 35 46 19 25 1020.6 1020.6 0.0
19/02:30pm 26.2 21.1 16.7 56 5.9 ESE 39 48 21 26 1020.7 1020.7 0.0
19/02:00pm 26.4 21.1 16.3 53 6.2 ESE 39 46 21 25 1021.0 1021.0 0.0
19/01:30pm 27.2 21.8 15.9 50 6.9 SE 39 52 21 28 1021.2 1021.2 0.0
19/01:00pm 28.0 22.6 16.9 51 6.9 ESE 41 50 22 27 1021.2 1021.2 0.0
19/12:30pm 27.1 22.1 17.0 54 6.3 SE 39 48 21 26 1021.6 1021.6 0.0
19/12:00pm 27.1 22.5 17.0 54 6.3 SE 37 44 20 24 1021.9 1021.9 0.0
19/11:30am 26.9 22.8 16.5 53 6.4 ESE 33 43 18 23 1022.4 1022.4 0.0
19/11:00am 27.1 22.7 16.7 53 6.4 SE 35 46 19 25 1022.7 1022.7 0.0
19/10:30am 26.5 21.3 15.5 50 6.7 SE 37 46 20 25 1023.0 1023.0 0.0
19/10:00am 27.0 21.6 16.0 51 6.7 SE 39 50 21 27 1023.2 1023.2 0.0
19/09:30am 25.4 20.5 15.4 54 6.0 SE 35 46 19 25 1023.1 1023.1 0.0
19/09:00am 25.2 20.3 15.2 54 6.0 ESE 35 43 19 23 1023.0 1023.0 0.0
19/08:30am 25.4 20.9 15.4 54 6.0 SE 33 44 18 24 1023.0 1023.0 0.0
19/08:00am 26.0 22.0 16.8 57 5.7 ESE 33 46 18 25 1023.1 1023.1 0.0
19/07:30am 23.7 19.4 16.0 62 4.7 ESE 33 44 18 24 1023.0 1023.0 0.0
19/07:00am 24.5 20.1 16.7 61 4.8 ESE 35 44 19 24 1022.6 1022.6 0.0
19/06:30am 23.7 18.8 15.2 59 5.1 SE 35 46 19 25 1022.1 1022.1 0.0
19/06:00am 23.1 19.4 16.9 68 3.8 ESE 32 43 17 23 1021.8 1021.8 0.0
19/05:30am 22.6 18.7 16.4 68 3.8 SE 32 39 17 21 1021.6 1021.6 0.0
19/05:00am 22.4 18.4 16.2 68 3.7 SE 32 41 17 22 1021.5 1021.5 0.0
19/04:30am 22.6 18.4 15.7 65 4.1 ESE 32 43 17 23 1021.3 1021.3 0.0
19/04:00am 22.6 18.9 15.9 66 4.0 ESE 30 41 16 22 1020.9 1020.9 0.0
19/03:30am 22.5 19.2 16.1 67 3.9 ESE 28 39 15 21 1020.7 1020.7 0.0
19/03:00am 22.6 18.5 15.9 66 4.0 ESE 32 39 17 21 1020.7 1020.7 0.0
19/02:30am 22.7 18.6 16.5 68 3.8 ESE 33 41 18 22 1020.7 1020.7 0.0
19/02:00am 22.5 19.2 16.1 67 3.9 ESE 28 35 15 19 1021.0 1021.0 0.0
19/01:30am 22.7 19.0 16.0 66 4.0 ESE 30 37 16 20 1021.3 1021.3 0.0
19/01:00am 22.6 18.9 15.9 66 4.0 ESE 30 39 16 21 1021.7 1021.7 0.0
19/12:30am 22.6 19.0 16.2 67 3.9 ESE 30 39 16 21 1022.0 1022.0 0.0
19/12:00am 22.7 19.5 16.3 67 3.9 ESE 28 35 15 19 1022.2 1022.2 0.0
 
Date/Time
EST
Temp
°C
App
Temp
°C
Dew
Point
Rel
Hum
%
Delta-T
°C
Wind Press
QNH
hPa
Press
MSL
hPa
Rain
since 9 am
mm
Dir
 
Spd
km/h
Gust
km/h
Spd
kts
Gust
kts
18/11:30pm 23.0 19.9 16.5 67 4.0 ESE 28 37 15 20 1022.5 1022.5 0.0
18/11:00pm 22.9 19.3 15.2 62 4.6 ESE 28 35 15 19 1022.6 1022.6 0.0
18/10:30pm 22.9 19.2 16.0 65 4.2 ESE 30 41 16 22 1023.0 1023.0 0.0
18/10:00pm 22.9 19.2 16.0 65 4.2 ESE 30 39 16 21 1022.8 1022.8 0.0
18/09:30pm 22.9 20.0 16.0 65 4.2 ESE 26 35 14 19 1022.9 1022.9 0.0
18/09:00pm 22.8 19.0 16.6 68 3.8 ESE 32 41 17 22 1022.6 1022.6 0.0
18/08:30pm 23.0 19.4 16.3 66 4.1 ESE 30 41 16 22 1022.5 1022.5 0.0
18/08:00pm 23.1 19.3 16.6 67 4.0 ESE 32 41 17 22 1022.2 1022.2 0.0
18/07:30pm 23.3 20.8 17.1 68 3.8 ESE 26 33 14 18 1022.1 1022.1 0.0
18/07:00pm 23.3 20.3 16.8 67 4.0 ESE 28 35 15 19 1021.7 1021.7 0.0
18/06:30pm 23.2 20.3 17.0 68 3.8 ESE 28 37 15 20 1021.4 1021.4 0.0
18/06:00pm 23.3 20.9 17.3 69 3.7 ESE 26 35 14 19 1020.8 1020.8 0.0
18/05:30pm 23.9 20.7 17.2 66 4.1 ESE 30 41 16 22 1020.4 1020.4 0.0
18/05:00pm 24.2 20.3 16.5 62 4.7 ESE 32 39 17 21 1020.0 1020.0 0.0
18/04:30pm 24.8 20.7 16.5 60 5.1 ESE 33 39 18 21 1019.7 1019.7 0.0
18/04:00pm 25.8 21.7 16.4 56 5.8 ESE 33 43 18 23 1019.5 1019.5 0.0
18/03:30pm 26.1 21.5 16.1 54 6.1 ESE 35 43 19 23 1019.2 1019.2 0.0

Other Formats:

Comma delimited format used in spreadsheet applications
http://www.bom.gov.au/fwo/IDQ60801/IDQ60801.95367.axf

JavaScript Object Notation format (JSON) in row-major order
http://www.bom.gov.au/fwo/IDQ60801/IDQ60801.95367.json